Time;durP1;ratioP1;P1;durP2;ratioP2;P2;SDS_P1;SDS_P2;PMS_P1;PMS_P2;Temp;Humidity;BMP_temperature;BMP_pressure;BME280_temperature;BME280_humidity;BME280_pressure;Samples;Min_cycle;Max_cycle;Signal;HPM_P1;HPM_P2
2023/08/05 00:00:52;;;;;;;;;;;;;;;;;;5092022;28;20234;-68
2023/08/05 00:03:18;;;;;;;;;;;;;;;;;;5091335;28;20006;-69
2023/08/05 00:05:44;;;;;;;;;;;;;;;;;;5090813;28;19915;-69
2023/08/05 00:08:10;;;;;;;;;;;;;;;;;;5091235;28;19908;-69
2023/08/05 00:10:36;;;;;;;;;;;;;;;;;;5091200;28;19938;-69
2023/08/05 00:13:02;;;;;;;;;;;;;;;;;;5089477;28;20011;-69
2023/08/05 00:15:28;;;;;;;;;;;;;;;;;;5091043;28;19916;-69
2023/08/05 00:17:53;;;;;;;;;;;;;;;;;;5091054;28;19909;-69
2023/08/05 00:20:19;;;;;;;;;;;;;;;;;;5090526;28;19917;-68
2023/08/05 00:22:45;;;;;;;;;;;;;;;;;;5090939;28;19993;-68
2023/08/05 00:25:11;;;;;;;;;;;;;;;;;;5089660;28;20357;-68
2023/08/05 00:27:37;;;;;;;;;;;;;;;;;;5090553;28;19999;-69
2023/08/05 00:30:03;;;;;;;;;;;;;;;;;;5090927;28;19912;-69
2023/08/05 00:32:30;;;;;;;;;;;;;;;;;;5090815;28;20289;-69
2023/08/05 00:34:56;;;;;;;;;;;;;;;;;;5090275;28;19915;-68
2023/08/05 00:37:22;;;;;;;;;;;;;;;;;;5090679;28;19952;-68
2023/08/05 00:39:47;;;;;;;;;;;;;;;;;;5090158;28;19959;-68
2023/08/05 00:42:18;;;;;;;;;;;;;;;;;;5090536;28;19909;-68
2023/08/05 00:44:44;;;;;;;;;;;;;;;;;;5090799;28;20361;-68
2023/08/05 00:47:10;;;;;;;;;;;;;;;;;;5090051;28;19919;-68
2023/08/05 00:49:36;;;;;;;;;;;;;;;;;;5090386;28;19908;-69
2023/08/05 00:52:02;;;;;;;;;;;;;;;;;;5090388;28;19912;-69
2023/08/05 00:54:28;;;;;;;;;;;;;;;;;;5089884;28;19954;-69
2023/08/05 00:58:14;;;;;;;;;;;;;;;;;;5112047;27;20295;-68
2023/08/05 01:00:39;;;;;;;;;;;;;;;;;;5111692;28;19994;-68
2023/08/05 01:03:05;;;;;;;;;;;;;;;;;;5109914;28;19908;-68
2023/08/05 01:05:31;;;;;;;;;;;;;;;;;;5110324;28;19908;-69
2023/08/05 01:07:57;;;;;;;;;;;;;;;;;;5111572;28;20003;-69
2023/08/05 01:10:23;;;;;;;;;;;;;;;;;;5110221;28;19912;-69
2023/08/05 01:12:49;;;;;;;;;;;;;;;;;;5111541;28;20382;-69
2023/08/05 01:15:15;;;;;;;;;;;;;;;;;;5111012;28;20249;-69
2023/08/05 01:17:42;;;;;;;;;;;;;;;;;;5111269;28;19939;-69
2023/08/05 01:20:08;;;;;;;;;;;;;;;;;;5111363;28;19908;-69
2023/08/05 01:22:34;;;;;;;;;;;;;;;;;;5110867;28;19908;-69
2023/08/05 01:25:00;;;;;;;;;;;;;;;;;;5111272;28;19912;-69
2023/08/05 01:29:54;;;;;;;;;;;;;;;;;;5091252;27;19917;-68
2023/08/05 01:32:20;;;;;;;;;;;;;;;;;;5091536;28;20007;-69
2023/08/05 01:37:11;;;;;;;;;;;;;;;;;;5091297;27;19913;-69
2023/08/05 01:39:37;;;;;;;;;;;;;;;;;;5091317;28;20325;-68
2023/08/05 01:44:25;;;;;;;;;;;;;;;;;;5111620;27;19919;-69
2023/08/05 01:48:13;;;;;;;;;;;;;;;;;;5091525;27;19912;-68
2023/08/05 01:50:39;;;;;;;;;;;;;;;;;;5091026;28;20022;-69
2023/08/05 01:53:05;;;;;;;;;;;;;;;;;;5091226;28;19908;-68
2023/08/05 01:55:31;;;;;;;;;;;;;;;;;;5091490;28;19912;-69
2023/08/05 01:57:57;;;;;;;;;;;;;;;;;;5090826;28;20307;-69
2023/08/05 02:00:23;;;;;;;;;;;;;;;;;;5091102;28;19948;-68
2023/08/05 02:02:48;;;;;;;;;;;;;;;;;;5091093;28;19908;-69
2023/08/05 02:05:14;;;;;;;;;;;;;;;;;;5090614;28;19954;-69
2023/08/05 02:07:40;;;;;;;;;;;;;;;;;;5089685;28;20023;-69
2023/08/05 02:10:06;;;;;;;;;;;;;;;;;;5089787;28;19934;-69
2023/08/05 02:12:32;;;;;;;;;;;;;;;;;;5090594;28;19908;-67
2023/08/05 02:14:58;;;;;;;;;;;;;;;;;;5091001;28;19919;-69
2023/08/05 02:17:24;;;;;;;;;;;;;;;;;;5090820;28;20321;-69
2023/08/05 02:19:50;;;;;;;;;;;;;;;;;;5090370;28;20296;-69
2023/08/05 02:22:16;;;;;;;;;;;;;;;;;;5090719;28;19952;-69
2023/08/05 02:27:11;;;;;;;;;;;;;;;;;;5091152;27;19996;-68
2023/08/05 02:29:37;;;;;;;;;;;;;;;;;;5091210;28;20011;-68
2023/08/05 02:32:03;;;;;;;;;;;;;;;;;;5091218;28;19909;-68
2023/08/05 02:34:29;;;;;;;;;;;;;;;;;;5090912;28;19915;-70
2023/08/05 02:36:54;;;;;;;;;;;;;;;;;;5091155;28;19912;-68
2023/08/05 02:39:20;;;;;;;;;;;;;;;;;;5091057;28;19954;-68
2023/08/05 02:42:26;;;;;;;;;;;;;;;;;;5111936;27;19922;-69
2023/08/05 02:51:31;;;;;;;;;;;;;;;;;;5112497;27;19916;-68
2023/08/05 02:53:57;;;;;;;;;;;;;;;;;;5111286;28;20287;-68
2023/08/05 02:57:49;;;;;;;;;;;;;;;;;;5091333;27;19912;-68
2023/08/05 03:00:15;;;;;;;;;;;;;;;;;;5091230;28;20007;-68
2023/08/05 03:03:08;;;;;;;;;;;;;;;;;;5111982;27;19934;-68
2023/08/05 03:05:34;;;;;;;;;;;;;;;;;;5112027;28;19915;-68
2023/08/05 03:08:00;;;;;;;;;;;;;;;;;;5111234;28;19908;-68
2023/08/05 03:13:32;;;;;;;;;;;;;;;;;;5091815;27;19917;-68
2023/08/05 03:15:58;;;;;;;;;;;;;;;;;;5090879;28;19995;-68
2023/08/05 03:18:24;;;;;;;;;;;;;;;;;;5091268;28;20290;-68
2023/08/05 03:20:50;;;;;;;;;;;;;;;;;;5091245;28;19940;-69
2023/08/05 03:23:16;;;;;;;;;;;;;;;;;;5090806;28;19931;-68
2023/08/05 03:25:42;;;;;;;;;;;;;;;;;;5089851;28;19964;-68
2023/08/05 03:30:20;;;;;;;;;;;;;;;;;;5111466;27;20376;-68
2023/08/05 03:35:00;;;;;;;;;;;;;;;;;;5173698;27;19918;-68
2023/08/05 03:37:26;;;;;;;;;;;;;;;;;;5173304;27;20009;-68
2023/08/05 03:39:52;;;;;;;;;;;;;;;;;;5173640;27;19914;-68
2023/08/05 03:42:17;;;;;;;;;;;;;;;;;;5173714;27;20386;-68
2023/08/05 03:44:43;;;;;;;;;;;;;;;;;;5173120;27;19914;-68
2023/08/05 03:47:09;;;;;;;;;;;;;;;;;;5173706;27;19911;-68
2023/08/05 03:51:12;;;;;;;;;;;;;;;;;;5111486;27;20257;-68
2023/08/05 03:53:38;;;;;;;;;;;;;;;;;;5111682;28;20098;-68
2023/08/05 03:56:04;;;;;;;;;;;;;;;;;;5110262;28;20265;-68
2023/08/05 04:00:34;;;;;;;;;;;;;;;;;;5091934;27;19916;-68
2023/08/05 04:03:00;;;;;;;;;;;;;;;;;;5091431;28;20007;-68
2023/08/05 04:05:26;;;;;;;;;;;;;;;;;;5091012;28;20369;-69
2023/08/05 04:09:36;;;;;;;;;;;;;;;;;;5111733;27;19916;-68
2023/08/05 04:12:04;;;;;;;;;;;;;;;;;;5111450;28;19965;-68
2023/08/05 04:15:54;;;;;;;;;;;;;;;;;;5071219;28;19916;-68
2023/08/05 04:19:06;;;;;;;;;;;;;;;;;;5131934;27;19916;-68
2023/08/05 04:21:39;;;;;;;;;;;;;;;;;;5132373;28;20375;-68
2023/08/05 04:24:09;;;;;;;;;;;;;;;;;;5132310;28;19915;-68
2023/08/05 04:26:35;;;;;;;;;;;;;;;;;;5131757;28;20364;-69
2023/08/05 04:29:01;;;;;;;;;;;;;;;;;;5132260;28;19954;-68
2023/08/05 04:32:53;;;;;;;;;;;;;;;;;;5091430;27;20381;-68
2023/08/05 04:36:32;;;;;;;;;;;;;;;;;;5111960;27;19916;-68
2023/08/05 04:42:09;;;;;;;;;;;;;;;;;;5091690;27;20403;-68
2023/08/05 04:48:07;;;;;;;;;;;;;;;;;;5091016;27;19916;-68
2023/08/05 04:51:03;;;;;;;;;;;;;;;;;;5111982;27;20273;-69
2023/08/05 04:53:29;;;;;;;;;;;;;;;;;;5110007;28;20007;-68
2023/08/05 04:55:55;;;;;;;;;;;;;;;;;;5111664;28;20330;-69
2023/08/05 04:59:38;;;;;;;;;;;;;;;;;;5091907;27;19912;-69
2023/08/05 05:02:04;;;;;;;;;;;;;;;;;;5090939;28;20011;-69
2023/08/05 05:05:26;;;;;;;;;;;;;;;;;;5174114;27;19911;-68
2023/08/05 05:13:26;;;;;;;;;;;;;;;;;;5092160;27;19917;-68
2023/08/05 05:15:52;;;;;;;;;;;;;;;;;;5090910;28;19918;-68
2023/08/05 05:18:19;;;;;;;;;;;;;;;;;;5091235;28;19912;-68
2023/08/05 05:20:45;;;;;;;;;;;;;;;;;;5091404;28;20003;-68
2023/08/05 05:25:24;;;;;;;;;;;;;;;;;;5091821;27;19917;-68
2023/08/05 05:27:50;;;;;;;;;;;;;;;;;;5091250;28;19918;-68
2023/08/05 05:30:16;;;;;;;;;;;;;;;;;;5090792;28;20372;-68
2023/08/05 05:32:42;;;;;;;;;;;;;;;;;;5089907;28;20272;-68
2023/08/05 05:39:05;;;;;;;;;;;;;;;;;;5091796;27;19916;-68
2023/08/05 05:41:30;;;;;;;;;;;;;;;;;;5091350;28;20007;-68
2023/08/05 05:43:58;;;;;;;;;;;;;;;;;;5090787;28;19912;-68
2023/08/05 05:46:25;;;;;;;;;;;;;;;;;;5091154;28;19915;-68
2023/08/05 05:48:51;;;;;;;;;;;;;;;;;;5091009;28;20288;-68
2023/08/05 05:51:17;;;;;;;;;;;;;;;;;;5090676;28;19995;-68
2023/08/05 05:53:43;;;;;;;;;;;;;;;;;;5091078;28;19998;-68
2023/08/05 05:56:09;;;;;;;;;;;;;;;;;;5091051;28;19909;-68
2023/08/05 05:58:35;;;;;;;;;;;;;;;;;;5090511;28;19920;-69
2023/08/05 06:01:01;;;;;;;;;;;;;;;;;;5089670;28;19915;-68
2023/08/05 06:03:27;;;;;;;;;;;;;;;;;;5090482;28;20272;-70
2023/08/05 06:05:53;;;;;;;;;;;;;;;;;;5089621;28;19908;-68
2023/08/05 06:08:19;;;;;;;;;;;;;;;;;;5090779;28;19909;-68
2023/08/05 06:10:45;;;;;;;;;;;;;;;;;;5090345;28;19920;-69
2023/08/05 06:14:17;;;;;;;;;;;;;;;;;;5112331;27;19919;-68
2023/08/05 06:16:43;;;;;;;;;;;;;;;;;;5111686;28;20402;-68
2023/08/05 06:19:09;;;;;;;;;;;;;;;;;;5111247;28;19951;-68
2023/08/05 06:22:13;;;;;;;;;;;;;;;;;;5091431;28;20394;-68
2023/08/05 06:24:39;;;;;;;;;;;;;;;;;;5090824;28;20002;-68
2023/08/05 06:27:05;;;;;;;;;;;;;;;;;;5091516;28;20421;-68
2023/08/05 06:29:31;;;;;;;;;;;;;;;;;;5091156;28;20356;-68
2023/08/05 06:31:57;;;;;;;;;;;;;;;;;;5091296;28;20306;-68
2023/08/05 06:34:23;;;;;;;;;;;;;;;;;;5091101;28;20331;-68
2023/08/05 06:36:49;;;;;;;;;;;;;;;;;;5090998;28;19952;-68
2023/08/05 06:39:15;;;;;;;;;;;;;;;;;;5090550;28;20285;-68
2023/08/05 06:41:41;;;;;;;;;;;;;;;;;;5090883;28;19932;-68
2023/08/05 06:44:07;;;;;;;;;;;;;;;;;;5089631;28;20268;-68
2023/08/05 06:46:33;;;;;;;;;;;;;;;;;;5090436;28;19981;-69
2023/08/05 06:48:59;;;;;;;;;;;;;;;;;;5090738;28;19930;-69
2023/08/05 06:51:26;;;;;;;;;;;;;;;;;;5089430;28;20261;-68
2023/08/05 06:55:53;;;;;;;;;;;;;;;;;;5092065;27;19917;-69
2023/08/05 06:58:19;;;;;;;;;;;;;;;;;;5091293;28;19912;-69
2023/08/05 07:00:45;;;;;;;;;;;;;;;;;;5090745;28;19909;-69
2023/08/05 07:03:11;;;;;;;;;;;;;;;;;;5091137;28;19962;-69
2023/08/05 07:05:37;;;;;;;;;;;;;;;;;;5091400;28;19999;-69
2023/08/05 07:08:03;;;;;;;;;;;;;;;;;;5090810;28;19912;-69
2023/08/05 07:10:28;;;;;;;;;;;;;;;;;;5091045;28;20280;-69
2023/08/05 07:12:54;;;;;;;;;;;;;;;;;;5090991;28;20284;-68
2023/08/05 07:15:20;;;;;;;;;;;;;;;;;;5090495;28;19985;-68
2023/08/05 07:17:46;;;;;;;;;;;;;;;;;;5090886;28;19908;-68
2023/08/05 07:20:12;;;;;;;;;;;;;;;;;;5091332;28;20395;-68
2023/08/05 07:22:38;;;;;;;;;;;;;;;;;;5090251;28;19916;-68
2023/08/05 07:25:04;;;;;;;;;;;;;;;;;;5090765;28;19908;-71
2023/08/05 07:27:30;;;;;;;;;;;;;;;;;;5090645;28;19908;-69
2023/08/05 07:29:56;;;;;;;;;;;;;;;;;;5090206;28;19935;-69
2023/08/05 07:32:22;;;;;;;;;;;;;;;;;;5090745;28;19912;-69
2023/08/05 07:34:48;;;;;;;;;;;;;;;;;;5090062;28;20015;-70
2023/08/05 07:37:14;;;;;;;;;;;;;;;;;;5090479;28;19914;-70
2023/08/05 07:39:46;;;;;;;;;;;;;;;;;;5090461;28;20377;-70
2023/08/05 07:42:14;;;;;;;;;;;;;;;;;;5090224;28;20262;-70
2023/08/05 07:46:41;;;;;;;;;;;;;;;;;;5111649;27;20406;-69
2023/08/05 07:49:07;;;;;;;;;;;;;;;;;;5111131;28;20402;-69
2023/08/05 07:51:34;;;;;;;;;;;;;;;;;;5111490;28;19908;-69
2023/08/05 07:54:00;;;;;;;;;;;;;;;;;;5111490;28;19908;-69
2023/08/05 07:56:26;;;;;;;;;;;;;;;;;;5111080;28;19946;-69
2023/08/05 07:58:52;;;;;;;;;;;;;;;;;;5110082;28;19912;-69
2023/08/05 08:01:21;;;;;;;;;;;;;;;;;;5111409;28;20317;-69
2023/08/05 08:03:48;;;;;;;;;;;;;;;;;;5110987;28;20423;-69
2023/08/05 08:06:15;;;;;;;;;;;;;;;;;;5111581;28;20409;-69
2023/08/05 08:08:41;;;;;;;;;;;;;;;;;;5111336;28;19912;-69
2023/08/05 08:11:07;;;;;;;;;;;;;;;;;;5110936;28;19933;-69
2023/08/05 08:13:33;;;;;;;;;;;;;;;;;;5111221;28;19908;-69
2023/08/05 08:15:59;;;;;;;;;;;;;;;;;;5111393;28;20325;-69
2023/08/05 08:18:25;;;;;;;;;;;;;;;;;;5110687;28;20323;-69
2023/08/05 08:20:51;;;;;;;;;;;;;;;;;;5111080;28;20315;-69
2023/08/05 08:23:17;;;;;;;;;;;;;;;;;;5111011;28;19908;-69
2023/08/05 08:25:43;;;;;;;;;;;;;;;;;;5110566;28;20303;-69
2023/08/05 08:28:09;;;;;;;;;;;;;;;;;;5111059;28;20335;-69
2023/08/05 08:30:35;;;;;;;;;;;;;;;;;;5110907;28;19999;-69
2023/08/05 08:33:01;;;;;;;;;;;;;;;;;;5110582;28;20079;-69
2023/08/05 08:35:27;;;;;;;;;;;;;;;;;;5109467;28;19961;-68
2023/08/05 08:37:53;;;;;;;;;;;;;;;;;;5110485;28;19961;-69
2023/08/05 08:40:18;;;;;;;;;;;;;;;;;;5110322;28;19940;-69
2023/08/05 08:42:44;;;;;;;;;;;;;;;;;;5110923;28;20343;-70
2023/08/05 08:45:10;;;;;;;;;;;;;;;;;;5109882;28;19919;-69
2023/08/05 08:47:36;;;;;;;;;;;;;;;;;;5109256;28;19915;-70
2023/08/05 08:50:02;;;;;;;;;;;;;;;;;;5110676;28;19908;-68
2023/08/05 08:52:28;;;;;;;;;;;;;;;;;;5110122;28;19922;-68
2023/08/05 08:54:54;;;;;;;;;;;;;;;;;;5110528;28;19950;-70
2023/08/05 08:57:20;;;;;;;;;;;;;;;;;;5099380;28;19922;-71
2023/08/05 08:59:47;;;;;;;;;;;;;;;;;;5096576;28;19908;-70
2023/08/05 09:02:13;;;;;;;;;;;;;;;;;;5097003;28;19931;-70
2023/08/05 09:04:39;;;;;;;;;;;;;;;;;;5096700;28;20372;-70
2023/08/05 09:07:04;;;;;;;;;;;;;;;;;;5096230;28;19912;-71
2023/08/05 09:09:31;;;;;;;;;;;;;;;;;;5096977;28;19909;-70
2023/08/05 09:11:57;;;;;;;;;;;;;;;;;;5097067;28;20267;-70
2023/08/05 09:14:22;;;;;;;;;;;;;;;;;;5096329;28;20007;-71
2023/08/05 09:16:49;;;;;;;;;;;;;;;;;;5095107;28;19908;-70
2023/08/05 09:19:15;;;;;;;;;;;;;;;;;;5096209;28;20006;-70
2023/08/05 09:21:40;;;;;;;;;;;;;;;;;;5095795;28;20375;-70
2023/08/05 09:24:06;;;;;;;;;;;;;;;;;;5096403;28;20276;-70
2023/08/05 09:26:32;;;;;;;;;;;;;;;;;;5096047;28;20257;-70
2023/08/05 09:28:58;;;;;;;;;;;;;;;;;;5094434;28;20391;-70
2023/08/05 09:31:24;;;;;;;;;;;;;;;;;;5096147;28;20007;-70
2023/08/05 09:33:50;;;;;;;;;;;;;;;;;;5096491;28;19908;-70
2023/08/05 09:36:17;;;;;;;;;;;;;;;;;;5095747;28;19908;-70
2023/08/05 09:38:44;;;;;;;;;;;;;;;;;;5096004;28;19915;-70
2023/08/05 09:41:10;;;;;;;;;;;;;;;;;;5095953;28;19912;-70
2023/08/05 09:43:45;;;;;;;;;;;;;;;;;;5095497;28;19961;-70
2023/08/05 09:46:14;;;;;;;;;;;;;;;;;;5095639;28;20402;-70
2023/08/05 09:48:43;;;;;;;;;;;;;;;;;;5095413;28;19954;-70
2023/08/05 09:51:09;;;;;;;;;;;;;;;;;;5095941;28;20003;-70
2023/08/05 09:53:35;;;;;;;;;;;;;;;;;;5096008;28;19951;-70
2023/08/05 09:56:01;;;;;;;;;;;;;;;;;;5095279;28;20398;-70
2023/08/05 09:58:27;;;;;;;;;;;;;;;;;;5095579;28;20280;-70
2023/08/05 10:00:53;;;;;;;;;;;;;;;;;;5095579;28;19915;-70
2023/08/05 10:03:19;;;;;;;;;;;;;;;;;;5095190;28;19908;-70
2023/08/05 10:05:45;;;;;;;;;;;;;;;;;;5095654;28;19916;-70
2023/08/05 10:08:11;;;;;;;;;;;;;;;;;;5094460;28;19951;-70
2023/08/05 10:10:38;;;;;;;;;;;;;;;;;;5094979;28;19908;-70
2023/08/05 10:13:08;;;;;;;;;;;;;;;;;;5094135;28;20395;-70
2023/08/05 10:15:34;;;;;;;;;;;;;;;;;;5095246;28;20355;-70
2023/08/05 10:18:00;;;;;;;;;;;;;;;;;;5095094;28;19915;-70
2023/08/05 10:20:26;;;;;;;;;;;;;;;;;;5095292;28;20372;-70
2023/08/05 10:22:52;;;;;;;;;;;;;;;;;;5095722;28;20426;-70
2023/08/05 10:25:18;;;;;;;;;;;;;;;;;;5094686;28;20380;-70
2023/08/05 10:27:44;;;;;;;;;;;;;;;;;;5094420;28;20320;-70
2023/08/05 10:30:10;;;;;;;;;;;;;;;;;;5095551;28;19912;-70
2023/08/05 10:32:36;;;;;;;;;;;;;;;;;;5093484;28;19930;-70
2023/08/05 10:35:01;;;;;;;;;;;;;;;;;;5093730;28;19919;-70
2023/08/05 10:37:27;;;;;;;;;;;;;;;;;;5094815;28;19908;-70
2023/08/05 10:39:53;;;;;;;;;;;;;;;;;;5094603;28;19909;-70
2023/08/05 10:42:20;;;;;;;;;;;;;;;;;;5094859;28;20417;-71
2023/08/05 10:44:45;;;;;;;;;;;;;;;;;;5094604;28;19920;-70
2023/08/05 10:47:11;;;;;;;;;;;;;;;;;;5094694;28;19912;-70
2023/08/05 10:49:37;;;;;;;;;;;;;;;;;;5094669;28;20023;-72
2023/08/05 10:52:03;;;;;;;;;;;;;;;;;;5094378;28;19912;-70
2023/08/05 10:54:31;;;;;;;;;;;;;;;;;;5094737;28;19908;-70
2023/08/05 10:56:57;;;;;;;;;;;;;;;;;;5095035;28;19908;-70
2023/08/05 10:59:23;;;;;;;;;;;;;;;;;;5094035;28;19912;-70
2023/08/05 11:01:49;;;;;;;;;;;;;;;;;;5094392;28;19956;-70
2023/08/05 11:04:15;;;;;;;;;;;;;;;;;;5094446;28;19915;-70
2023/08/05 11:06:41;;;;;;;;;;;;;;;;;;5093975;28;19920;-70
2023/08/05 11:09:08;;;;;;;;;;;;;;;;;;5094322;28;19987;-70
2023/08/05 11:11:34;;;;;;;;;;;;;;;;;;5094372;28;19987;-68
2023/08/05 11:14:00;;;;;;;;;;;;;;;;;;5092600;28;19908;-69
2023/08/05 11:16:25;;;;;;;;;;;;;;;;;;5094360;28;19915;-70
2023/08/05 11:18:51;;;;;;;;;;;;;;;;;;5094572;28;20387;-69
2023/08/05 11:21:17;;;;;;;;;;;;;;;;;;5093563;28;20258;-69
2023/08/05 11:23:45;;;;;;;;;;;;;;;;;;5094094;28;19908;-70
2023/08/05 11:26:11;;;;;;;;;;;;;;;;;;5094066;28;19962;-71
2023/08/05 11:28:37;;;;;;;;;;;;;;;;;;5092302;28;20315;-70
2023/08/05 11:31:04;;;;;;;;;;;;;;;;;;5094263;28;20328;-69
2023/08/05 11:33:30;;;;;;;;;;;;;;;;;;5094028;28;19995;-70
2023/08/05 11:35:56;;;;;;;;;;;;;;;;;;5093505;28;19936;-70
2023/08/05 11:38:22;;;;;;;;;;;;;;;;;;5093961;28;19908;-69
2023/08/05 11:40:48;;;;;;;;;;;;;;;;;;5093849;28;20284;-69
2023/08/05 11:43:14;;;;;;;;;;;;;;;;;;5093438;28;19908;-69
2023/08/05 11:45:40;;;;;;;;;;;;;;;;;;5092361;28;20366;-69
2023/08/05 11:48:06;;;;;;;;;;;;;;;;;;5093791;28;20284;-70
2023/08/05 11:50:32;;;;;;;;;;;;;;;;;;5093741;28;19908;-69
2023/08/05 11:52:58;;;;;;;;;;;;;;;;;;5092503;28;19923;-69
2023/08/05 11:55:24;;;;;;;;;;;;;;;;;;5092073;28;19915;-69
2023/08/05 11:57:50;;;;;;;;;;;;;;;;;;5093729;28;19998;-69
2023/08/05 12:00:16;;;;;;;;;;;;;;;;;;5093738;28;19908;-69
2023/08/05 12:02:42;;;;;;;;;;;;;;;;;;5093377;28;19978;-69
2023/08/05 12:05:08;;;;;;;;;;;;;;;;;;5093579;28;19916;-69
2023/08/05 12:07:34;;;;;;;;;;;;;;;;;;5092401;28;20007;-69
2023/08/05 12:10:00;;;;;;;;;;;;;;;;;;5091874;28;19953;-69
2023/08/05 12:12:26;;;;;;;;;;;;;;;;;;5093618;28;19909;-69
2023/08/05 12:14:51;;;;;;;;;;;;;;;;;;5093879;28;19912;-70
2023/08/05 12:17:18;;;;;;;;;;;;;;;;;;5093197;28;19954;-69
2023/08/05 12:19:44;;;;;;;;;;;;;;;;;;5093507;28;19998;-69
2023/08/05 12:22:10;;;;;;;;;;;;;;;;;;5093180;28;19973;-69
2023/08/05 12:24:36;;;;;;;;;;;;;;;;;;5092989;28;19908;-69
2023/08/05 12:27:01;;;;;;;;;;;;;;;;;;5093484;28;19917;-69
2023/08/05 12:29:27;;;;;;;;;;;;;;;;;;5093427;28;19952;-70
2023/08/05 12:31:53;;;;;;;;;;;;;;;;;;5094385;28;19912;-70
2023/08/05 12:34:19;;;;;;;;;;;;;;;;;;5096020;28;19915;-70
2023/08/05 12:36:45;;;;;;;6.38;3.83;;;;;;;;;;5096262;28;20364;-70
2023/08/05 12:39:12;;;;;;;6.85;3.70;;;;;;;;;;5096464;28;20034;-70
2023/08/05 12:41:38;;;;;;;8.20;3.60;;;;;;;;;;5096665;28;20498;-69
2023/08/05 12:44:04;;;;;;;6.15;3.40;;;;;;;;;;5095330;28;20024;-69
2023/08/05 12:46:30;;;;;;;8.45;3.85;;;;;;;;;;5095873;28;20055;-69
2023/08/05 12:48:56;;;;;;;6.47;3.17;;;;;;;;;;5096592;28;20020;-69
2023/08/05 12:51:22;;;;;;;8.18;3.20;;;;;;;;;;5095982;28;20384;-69
2023/08/05 12:53:48;;;;;;;6.10;3.45;;;;;;;;;;5096414;28;20465;-70
2023/08/05 12:56:14;;;;;;;5.60;3.30;;;;;;;;;;5096483;28;20028;-69
2023/08/05 12:58:40;;;;;;;7.63;3.80;;;;;;;;;;5095904;28;20028;-69
2023/08/05 13:01:07;;;;;;;7.93;3.90;;;;;;;;;;5096261;28;20055;-69
2023/08/05 13:03:33;;;;;;;6.22;3.42;;;;;;;;;;5095259;28;20537;-70
2023/08/05 13:05:59;;;;;;;7.03;3.47;;;;;;;;;;5096019;28;20047;-69
2023/08/05 13:08:25;;;;;;;5.57;3.53;;;;;;;;;;5096224;28;20054;-70
2023/08/05 13:10:53;;;;;;;6.78;3.75;;;;;;;;;;5094872;28;20039;-69
2023/08/05 13:13:19;;;;;;;3.55;2.95;;;;;;;;;;5095717;28;20024;-70
2023/08/05 13:15:45;;;;;;;7.35;3.35;;;;;;;;;;5096348;28;20080;-70
2023/08/05 13:18:11;;;;;;;7.38;3.40;;;;;;;;;;5096210;28;20024;-69
2023/08/05 13:20:37;;;;;;;4.97;3.08;;;;;;;;;;5095595;28;20077;-70
2023/08/05 13:23:03;;;;;;;6.60;3.75;;;;;;;;;;5096049;28;20043;-69
2023/08/05 13:25:29;;;;;;;6.45;4.15;;;;;;;;;;5095774;28;20505;-70
2023/08/05 13:27:55;;;;;;;6.95;3.50;;;;;;;;;;5095549;28;20024;-70
2023/08/05 13:30:22;;;;;;;8.52;4.03;;;;;;;;;;5095762;28;20384;-70
2023/08/05 13:32:48;;;;;;;5.82;3.58;;;;;;;;;;5095768;28;20027;-70
2023/08/05 13:35:14;;;;;;;5.28;3.28;;;;;;;;;;5095404;28;20020;-70
2023/08/05 13:37:40;;;;;;;4.80;3.00;;;;;;;;;;5095978;28;20029;-70
2023/08/05 13:40:06;;;;;;;5.93;3.35;;;;;;;;;;5095824;28;20066;-70
2023/08/05 13:42:32;;;;;;;7.28;3.50;;;;;;;;;;5094073;28;20062;-70
2023/08/05 13:44:59;;;;;;;8.40;3.70;;;;;;;;;;5095342;28;20378;-70
2023/08/05 13:47:25;;;;;;;5.72;3.60;;;;;;;;;;5095398;28;20027;-70
2023/08/05 13:49:51;;;;;;;6.55;3.17;;;;;;;;;;5094451;28;20105;-70
2023/08/05 13:52:17;;;;;;;8.15;3.25;;;;;;;;;;5095389;28;20055;-69
2023/08/05 13:54:43;;;;;;;6.00;3.05;;;;;;;;;;5094838;28;20024;-70
2023/08/05 13:57:09;;;;;;;5.32;3.45;;;;;;;;;;5095271;28;20016;-70
2023/08/05 13:59:35;;;;;;;7.30;3.80;;;;;;;;;;5095246;28;20024;-68
2023/08/05 14:02:01;;;;;;;7.97;3.83;;;;;;;;;;5094738;28;20028;-70
2023/08/05 14:04:28;;;;;;;6.28;3.30;;;;;;;;;;5093768;28;20028;-71
2023/08/05 14:06:54;;;;;;;5.10;3.05;;;;;;;;;;5095483;28;20451;-70
2023/08/05 14:09:20;;;;;;;4.55;2.85;;;;;;;;;;5094638;28;20036;-70
2023/08/05 14:11:46;;;;;;;6.18;3.30;;;;;;;;;;5093818;28;20024;-70
2023/08/05 14:14:12;;;;;;;7.57;3.28;;;;;;;;;;5093668;28;20020;-70
2023/08/05 14:16:39;;;;;;;5.40;3.13;;;;;;;;;;5094561;28;20114;-70
2023/08/05 14:19:06;;;;;;;6.03;2.97;;;;;;;;;;5095054;28;20024;-69
2023/08/05 14:21:32;;;;;;;7.35;3.85;;;;;;;;;;5094896;28;20027;-69
2023/08/05 14:23:58;;;;;;;7.10;3.00;;;;;;;;;;5094408;28;20075;-69
2023/08/05 14:26:24;;;;;;;4.43;2.90;;;;;;;;;;5094648;28;20040;-69
2023/08/05 14:28:51;;;;;;;4.78;2.63;;;;;;;;;;5094610;28;20020;-69
2023/08/05 14:31:17;;;;;;;5.90;3.90;;;;;;;;;;5094291;28;20055;-69
2023/08/05 14:33:43;;;;;;;6.13;3.40;;;;;;;;;;5094386;28;20028;-69
2023/08/05 14:36:12;;;;;;;8.05;2.92;;;;;;;;;;5094649;28;20045;-69
2023/08/05 14:38:38;;;;;;;5.15;3.10;;;;;;;;;;5094243;28;20035;-70
2023/08/05 14:41:05;;;;;;;6.78;3.33;;;;;;;;;;5094453;28;20097;-69
2023/08/05 14:43:31;;;;;;;6.50;3.30;;;;;;;;;;5094549;28;20387;-69
2023/08/05 14:45:57;;;;;;;6.57;3.50;;;;;;;;;;5093705;28;20048;-70
2023/08/05 14:48:23;;;;;;;7.40;3.65;;;;;;;;;;5094367;28;20484;-69
2023/08/05 14:50:49;;;;;;;6.10;3.60;;;;;;;;;;5094005;28;20028;-69
2023/08/05 14:53:15;;;;;;;5.07;2.92;;;;;;;;;;5092921;28;20019;-69
2023/08/05 14:55:41;;;;;;;5.68;3.15;;;;;;;;;;5093646;28;20027;-69
2023/08/05 14:58:07;;;;;;;8.05;3.25;;;;;;;;;;5093729;28;20024;-69
2023/08/05 15:00:34;;;;;;;7.65;3.25;;;;;;;;;;5094688;28;20028;-69
2023/08/05 15:03:00;;;;;;;5.03;2.83;;;;;;;;;;5094062;28;20095;-71
2023/08/05 15:05:26;;;;;;;5.50;3.00;;;;;;;;;;5093648;28;20032;-69
2023/08/05 15:07:53;;;;;;;5.65;2.83;;;;;;;;;;5094025;28;20024;-70
2023/08/05 15:10:19;;;;;;;6.93;3.40;;;;;;;;;;5093862;28;20024;-70
2023/08/05 15:12:45;;;;;;;6.45;2.63;;;;;;;;;;5093683;28;20115;-70
2023/08/05 15:15:11;;;;;;;9.85;3.38;;;;;;;;;;5093944;28;20545;-70
2023/08/05 15:17:40;;;;;;;7.78;3.42;;;;;;;;;;5093751;28;20464;-70
2023/08/05 15:20:07;;;;;;;9.80;3.50;;;;;;;;;;5093547;28;20108;-70
2023/08/05 15:22:34;;;;;;;6.40;2.97;;;;;;;;;;5093799;28;20024;-70
2023/08/05 15:25:00;;;;;;;6.97;3.63;;;;;;;;;;5093906;28;20039;-70
2023/08/05 15:27:26;;;;;;;6.78;3.70;;;;;;;;;;5093383;28;20027;-70
2023/08/05 15:29:59;;;;;;;8.00;4.45;;;;;;;;;;5092397;28;20023;-70
2023/08/05 15:32:25;;;;;;;6.93;3.30;;;;;;;;;;5092350;28;20027;-70
2023/08/05 15:34:52;;;;;;;6.90;3.80;;;;;;;;;;5093166;28;20485;-69
2023/08/05 15:37:18;;;;;;;8.52;3.90;;;;;;;;;;5093543;28;20388;-69
2023/08/05 15:39:44;;;;;;;7.15;3.63;;;;;;;;;;5093795;28;20020;-69
2023/08/05 15:42:10;;;;;;;6.60;4.03;;;;;;;;;;5093112;28;20024;-70
2023/08/05 15:44:36;;;;;;;6.60;4.10;;;;;;;;;;5093261;28;20032;-69
2023/08/05 15:47:05;;;;;;;9.00;3.80;;;;;;;;;;5093522;28;20051;-69
2023/08/05 15:49:32;;;;;;;15.73;4.47;;;;;;;;;;5093375;28;20077;-69
2023/08/05 15:51:58;;;;;;;15.52;3.88;;;;;;;;;;5093664;28;20372;-69
2023/08/05 15:54:24;;;;;;;12.02;2.83;;;;;;;;;;5093006;28;20020;-69
2023/08/05 15:56:50;;;;;;;10.88;2.63;;;;;;;;;;5093379;28;20064;-69
2023/08/05 15:59:16;;;;;;;33.17;5.68;;;;;;;;;;5091906;28;20051;-69
2023/08/05 16:01:42;;;;;;;51.28;5.90;;;;;;;;;;5091674;28;20161;-69
2023/08/05 16:04:08;;;;;;;25.25;5.43;;;;;;;;;;5093291;28;20024;-69
2023/08/05 16:06:36;;;;;;;14.30;2.97;;;;;;;;;;5093914;28;20047;-68
2023/08/05 16:09:03;;;;;;;32.45;4.18;;;;;;;;;;5097001;28;20017;-68
2023/08/05 16:11:31;;;;;;;22.45;3.22;;;;;;;;;;5097387;28;20107;-69
2023/08/05 16:13:57;;;;;;;8.60;2.25;;;;;;;;;;5097552;28;20020;-69
2023/08/05 16:16:23;;;;;;;21.58;5.07;;;;;;;;;;5095579;28;20043;-68
2023/08/05 16:18:50;;;;;;;35.53;4.13;;;;;;;;;;5097408;28;20427;-68
2023/08/05 16:21:20;;;;;;;27.20;3.83;;;;;;;;;;5097167;28;20028;-68
2023/08/05 16:23:47;;;;;;;25.27;2.70;;;;;;;;;;5096682;28;20073;-68
2023/08/05 16:26:15;;;;;;;8.27;2.42;;;;;;;;;;5096996;28;20040;-69
2023/08/05 16:28:41;;;;;;;6.80;1.70;;;;;;;;;;5096965;28;20111;-68
2023/08/05 16:31:07;;;;;;;9.88;1.75;;;;;;;;;;5096555;28;20056;-69
2023/08/05 16:33:34;;;;;;;5.25;1.80;;;;;;;;;;5097250;28;20091;-69
2023/08/05 16:38:00;;;;;;;13.27;3.20;;;;;;;;;;5111150;27;20408;-69
2023/08/05 16:40:26;;;;;;;11.95;1.73;;;;;;;;;;5110014;28;20054;-68
2023/08/05 16:42:52;;;;;;;6.25;1.52;;;;;;;;;;5111236;28;20054;-68
2023/08/05 16:45:18;;;;;;;5.22;2.10;;;;;;;;;;5110845;28;20361;-70
2023/08/05 16:49:31;;;;;;;11.52;2.55;;;;;;;;;;5111935;27;20430;-68
2023/08/05 16:54:47;;;;;;;9.20;1.50;;;;;;;;;;5111734;27;20565;-69
2023/08/05 16:59:25;;;;;;;3.35;1.20;;;;;;;;;;5070436;28;20427;-68
2023/08/05 17:04:44;;;;;;;3.00;0.98;;;;;;;;;;5111017;27;20438;-69
2023/08/05 17:10:33;;;;;;;4.32;1.45;;;;;;;;;;5111481;27;20396;-68
2023/08/05 17:13:00;;;;;;;4.93;1.20;;;;;;;;;;5110964;28;20488;-69
2023/08/05 17:15:26;;;;;;;3.45;1.33;;;;;;;;;;5111322;28;20077;-69
2023/08/05 17:17:52;;;;;;;4.45;1.50;;;;;;;;;;5111269;28;20016;-68
2023/08/05 17:20:18;;;;;;;2.80;1.30;;;;;;;;;;5110675;28;20046;-69